CheckWX is a tool to help pilots better visualize weather data.  It is not intended as a substitute for an official pre-flight weather briefing.

07:17:33 UTC

KORH TAF
Worcester Regional Airport
Worcester, Massachusetts, USA
KORH 200523Z 2006/2106 20006KT P6SM OVC003 FM201400 14004KT 3SM BR OVC003 FM201800 16005KT 4SM -SHRA BR OVC005 FM210000 18004KT 2SM BR OVC003 FM210500 27003KT 3SM BR OVC004

Jun-20@
06:00 UTC

Jun-20 @ 06:00 UTC

Jun-20@
14:00 UTC

Jun-20 @ 14:00 UTC

KORH 200523Z 2006/2106 20006KT P6SM OVC003
Wind
  • 200° at 6 KTS
Cloud Levels
  • Overcast at 300' AGL

Jun-20@
14:00 UTC

Jun-20 @ 14:00 UTC

Jun-20@
18:00 UTC

Jun-20 @ 18:00 UTC

FM201400 14004KT 3SM BR OVC003

From

From Standard forecast or significant change

Wind
  • 140° at 4 KTS
Conditions
Mist
Cloud Levels
  • Overcast at 300' AGL

Jun-20@
18:00 UTC

Jun-20 @ 18:00 UTC

Jun-21@
00:00 UTC

Jun-21 @ 00:00 UTC

FM201800 16005KT 4SM -SHRA BR OVC005

From

From Standard forecast or significant change

Wind
  • 160° at 5 KTS
Conditions
Light Rain, Mist
Cloud Levels
  • Overcast at 500' AGL

Jun-21@
00:00 UTC

Jun-21 @ 00:00 UTC

Jun-21@
05:00 UTC

Jun-21 @ 05:00 UTC

FM210000 18004KT 2SM BR OVC003

From

From Standard forecast or significant change

Wind
  • 180° at 4 KTS
Conditions
Mist
Cloud Levels
  • Overcast at 300' AGL

Jun-21@
05:00 UTC

Jun-21 @ 05:00 UTC

Jun-21@
06:00 UTC

Jun-21 @ 06:00 UTC

FM210500 27003KT 3SM BR OVC004

From

From Standard forecast or significant change

Wind
  • 270° at 3 KTS
Conditions
Mist
Cloud Levels
  • Overcast at 400' AGL